sensor_id;sensor_type;location;lat;lon;timestamp;P1;durP1;ratioP1;P2;durP2;ratioP2
12958;SDS011;6544;51.666;6.634;2023-02-05T00:01:34;31.85;;;12.63;;
12958;SDS011;6544;51.666;6.634;2023-02-05T00:04:02;30.42;;;11.57;;
12958;SDS011;6544;51.666;6.634;2023-02-05T00:06:29;26.35;;;11.10;;
12958;SDS011;6544;51.666;6.634;2023-02-05T00:08:56;31.73;;;12.63;;
12958;SDS011;6544;51.666;6.634;2023-02-05T00:11:24;34.47;;;12.95;;
12958;SDS011;6544;51.666;6.634;2023-02-05T00:13:51;28.88;;;12.70;;
12958;SDS011;6544;51.666;6.634;2023-02-05T00:16:21;32.35;;;12.45;;
12958;SDS011;6544;51.666;6.634;2023-02-05T00:18:49;32.50;;;12.65;;
12958;SDS011;6544;51.666;6.634;2023-02-05T00:21:17;33.90;;;12.43;;
12958;SDS011;6544;51.666;6.634;2023-02-05T00:23:44;32.25;;;12.48;;
12958;SDS011;6544;51.666;6.634;2023-02-05T00:26:12;33.70;;;12.95;;
12958;SDS011;6544;51.666;6.634;2023-02-05T00:28:40;33.00;;;11.98;;
12958;SDS011;6544;51.666;6.634;2023-02-05T00:31:08;31.60;;;12.90;;
12958;SDS011;6544;51.666;6.634;2023-02-05T00:33:36;26.70;;;11.60;;
12958;SDS011;6544;51.666;6.634;2023-02-05T00:36:03;35.92;;;12.15;;
12958;SDS011;6544;51.666;6.634;2023-02-05T00:38:31;39.97;;;11.88;;
12958;SDS011;6544;51.666;6.634;2023-02-05T00:40:58;34.78;;;12.07;;
12958;SDS011;6544;51.666;6.634;2023-02-05T00:43:25;27.88;;;12.40;;
12958;SDS011;6544;51.666;6.634;2023-02-05T00:45:53;30.53;;;12.17;;
12958;SDS011;6544;51.666;6.634;2023-02-05T00:48:20;34.00;;;12.60;;
12958;SDS011;6544;51.666;6.634;2023-02-05T00:50:49;33.67;;;11.95;;
12958;SDS011;6544;51.666;6.634;2023-02-05T00:53:17;30.75;;;11.20;;
12958;SDS011;6544;51.666;6.634;2023-02-05T00:55:45;29.98;;;12.35;;
12958;SDS011;6544;51.666;6.634;2023-02-05T00:58:12;35.00;;;12.55;;
12958;SDS011;6544;51.666;6.634;2023-02-05T01:00:39;31.45;;;12.30;;
12958;SDS011;6544;51.666;6.634;2023-02-05T01:03:08;30.70;;;13.10;;
12958;SDS011;6544;51.666;6.634;2023-02-05T01:05:35;36.28;;;13.15;;
12958;SDS011;6544;51.666;6.634;2023-02-05T01:08:03;42.85;;;12.98;;
12958;SDS011;6544;51.666;6.634;2023-02-05T01:10:31;33.13;;;12.23;;
12958;SDS011;6544;51.666;6.634;2023-02-05T01:12:58;30.80;;;12.60;;
12958;SDS011;6544;51.666;6.634;2023-02-05T01:15:25;32.75;;;12.38;;
12958;SDS011;6544;51.666;6.634;2023-02-05T01:17:52;35.88;;;13.48;;
12958;SDS011;6544;51.666;6.634;2023-02-05T01:20:20;35.72;;;12.73;;
12958;SDS011;6544;51.666;6.634;2023-02-05T01:22:47;34.08;;;12.85;;
12958;SDS011;6544;51.666;6.634;2023-02-05T01:25:14;35.72;;;14.30;;
12958;SDS011;6544;51.666;6.634;2023-02-05T01:27:41;35.63;;;13.43;;
12958;SDS011;6544;51.666;6.634;2023-02-05T01:30:09;35.97;;;12.48;;
12958;SDS011;6544;51.666;6.634;2023-02-05T01:32:37;35.58;;;13.05;;
12958;SDS011;6544;51.666;6.634;2023-02-05T01:35:04;42.15;;;13.02;;
12958;SDS011;6544;51.666;6.634;2023-02-05T01:37:33;39.28;;;12.48;;
12958;SDS011;6544;51.666;6.634;2023-02-05T01:40:00;35.95;;;13.30;;
12958;SDS011;6544;51.666;6.634;2023-02-05T01:42:28;30.13;;;12.27;;
12958;SDS011;6544;51.666;6.634;2023-02-05T01:48:16;33.25;;;12.07;;
12958;SDS011;6544;51.666;6.634;2023-02-05T01:50:47;33.60;;;12.40;;
12958;SDS011;6544;51.666;6.634;2023-02-05T01:53:20;34.03;;;13.10;;
12958;SDS011;6544;51.666;6.634;2023-02-05T01:55:50;38.33;;;12.18;;
12958;SDS011;6544;51.666;6.634;2023-02-05T01:58:20;32.65;;;12.40;;
12958;SDS011;6544;51.666;6.634;2023-02-05T02:00:48;34.50;;;12.60;;
12958;SDS011;6544;51.666;6.634;2023-02-05T02:03:15;37.47;;;11.85;;
12958;SDS011;6544;51.666;6.634;2023-02-05T02:05:42;29.15;;;11.90;;
12958;SDS011;6544;51.666;6.634;2023-02-05T02:08:09;34.92;;;11.98;;
12958;SDS011;6544;51.666;6.634;2023-02-05T02:10:39;34.05;;;11.68;;
12958;SDS011;6544;51.666;6.634;2023-02-05T02:13:09;32.80;;;11.52;;
12958;SDS011;6544;51.666;6.634;2023-02-05T02:15:36;32.92;;;11.60;;
12958;SDS011;6544;51.666;6.634;2023-02-05T02:18:04;32.25;;;12.70;;
12958;SDS011;6544;51.666;6.634;2023-02-05T02:20:51;35.90;;;12.60;;
12958;SDS011;6544;51.666;6.634;2023-02-05T02:23:36;36.67;;;12.13;;
12958;SDS011;6544;51.666;6.634;2023-02-05T02:26:23;31.00;;;12.77;;
12958;SDS011;6544;51.666;6.634;2023-02-05T02:29:08;36.85;;;13.70;;
12958;SDS011;6544;51.666;6.634;2023-02-05T02:31:43;32.70;;;13.73;;
12958;SDS011;6544;51.666;6.634;2023-02-05T02:34:16;31.60;;;11.80;;
12958;SDS011;6544;51.666;6.634;2023-02-05T02:36:49;36.22;;;13.43;;
12958;SDS011;6544;51.666;6.634;2023-02-05T02:39:22;35.42;;;12.52;;
12958;SDS011;6544;51.666;6.634;2023-02-05T02:41:52;36.15;;;12.43;;
12958;SDS011;6544;51.666;6.634;2023-02-05T02:44:24;37.28;;;12.38;;
12958;SDS011;6544;51.666;6.634;2023-02-05T02:46:58;34.90;;;11.98;;
12958;SDS011;6544;51.666;6.634;2023-02-05T02:49:31;35.80;;;11.65;;
12958;SDS011;6544;51.666;6.634;2023-02-05T02:52:02;39.90;;;13.13;;
12958;SDS011;6544;51.666;6.634;2023-02-05T02:54:32;35.13;;;13.05;;
12958;SDS011;6544;51.666;6.634;2023-02-05T02:57:02;32.08;;;12.20;;
12958;SDS011;6544;51.666;6.634;2023-02-05T02:59:34;30.65;;;12.05;;
12958;SDS011;6544;51.666;6.634;2023-02-05T03:02:04;40.60;;;13.32;;
12958;SDS011;6544;51.666;6.634;2023-02-05T03:04:33;34.42;;;12.45;;
12958;SDS011;6544;51.666;6.634;2023-02-05T03:07:04;35.05;;;12.20;;
12958;SDS011;6544;51.666;6.634;2023-02-05T03:09:37;37.53;;;13.00;;
12958;SDS011;6544;51.666;6.634;2023-02-05T03:12:07;35.03;;;12.52;;
12958;SDS011;6544;51.666;6.634;2023-02-05T03:14:35;35.40;;;14.07;;
12958;SDS011;6544;51.666;6.634;2023-02-05T03:17:03;32.97;;;13.57;;
12958;SDS011;6544;51.666;6.634;2023-02-05T03:19:30;37.55;;;15.23;;
12958;SDS011;6544;51.666;6.634;2023-02-05T03:21:58;43.55;;;15.35;;
12958;SDS011;6544;51.666;6.634;2023-02-05T03:24:29;43.47;;;15.95;;
12958;SDS011;6544;51.666;6.634;2023-02-05T03:26:56;47.35;;;17.15;;
12958;SDS011;6544;51.666;6.634;2023-02-05T03:29:24;42.70;;;16.40;;
12958;SDS011;6544;51.666;6.634;2023-02-05T03:31:56;46.03;;;16.90;;
12958;SDS011;6544;51.666;6.634;2023-02-05T03:34:35;46.28;;;18.10;;
12958;SDS011;6544;51.666;6.634;2023-02-05T03:37:12;54.03;;;17.77;;
12958;SDS011;6544;51.666;6.634;2023-02-05T03:39:50;41.60;;;16.88;;
12958;SDS011;6544;51.666;6.634;2023-02-05T03:42:32;42.88;;;18.25;;
12958;SDS011;6544;51.666;6.634;2023-02-05T03:45:17;37.10;;;17.17;;
12958;SDS011;6544;51.666;6.634;2023-02-05T03:48:08;40.45;;;18.42;;
12958;SDS011;6544;51.666;6.634;2023-02-05T03:50:47;45.30;;;18.15;;
12958;SDS011;6544;51.666;6.634;2023-02-05T03:53:20;47.75;;;19.70;;
12958;SDS011;6544;51.666;6.634;2023-02-05T03:55:51;49.22;;;20.02;;
12958;SDS011;6544;51.666;6.634;2023-02-05T03:58:23;45.97;;;18.83;;
12958;SDS011;6544;51.666;6.634;2023-02-05T04:00:54;42.05;;;19.10;;
12958;SDS011;6544;51.666;6.634;2023-02-05T04:03:22;49.08;;;20.45;;
12958;SDS011;6544;51.666;6.634;2023-02-05T04:05:49;43.33;;;20.30;;
12958;SDS011;6544;51.666;6.634;2023-02-05T04:08:16;42.78;;;19.65;;
12958;SDS011;6544;51.666;6.634;2023-02-05T04:10:43;44.05;;;20.17;;
12958;SDS011;6544;51.666;6.634;2023-02-05T04:13:10;46.33;;;19.90;;
12958;SDS011;6544;51.666;6.634;2023-02-05T04:15:36;40.58;;;19.70;;
12958;SDS011;6544;51.666;6.634;2023-02-05T04:18:03;41.58;;;19.15;;
12958;SDS011;6544;51.666;6.634;2023-02-05T04:20:32;44.00;;;19.73;;
12958;SDS011;6544;51.666;6.634;2023-02-05T04:22:59;44.72;;;19.48;;
12958;SDS011;6544;51.666;6.634;2023-02-05T04:25:26;41.88;;;19.48;;
12958;SDS011;6544;51.666;6.634;2023-02-05T04:27:53;37.13;;;18.67;;
12958;SDS011;6544;51.666;6.634;2023-02-05T04:30:20;36.50;;;18.83;;
12958;SDS011;6544;51.666;6.634;2023-02-05T04:32:47;41.25;;;19.52;;
12958;SDS011;6544;51.666;6.634;2023-02-05T04:35:14;38.72;;;19.67;;
12958;SDS011;6544;51.666;6.634;2023-02-05T04:37:42;37.97;;;19.65;;
12958;SDS011;6544;51.666;6.634;2023-02-05T04:40:09;42.72;;;20.45;;
12958;SDS011;6544;51.666;6.634;2023-02-05T04:42:36;50.58;;;21.85;;
12958;SDS011;6544;51.666;6.634;2023-02-05T04:45:03;42.72;;;21.17;;
12958;SDS011;6544;51.666;6.634;2023-02-05T04:47:31;47.67;;;23.15;;
12958;SDS011;6544;51.666;6.634;2023-02-05T04:49:58;49.53;;;22.23;;
12958;SDS011;6544;51.666;6.634;2023-02-05T04:52:25;41.25;;;22.20;;
12958;SDS011;6544;51.666;6.634;2023-02-05T04:54:53;49.88;;;23.45;;
12958;SDS011;6544;51.666;6.634;2023-02-05T04:57:20;44.80;;;23.08;;
12958;SDS011;6544;51.666;6.634;2023-02-05T04:59:48;47.35;;;23.73;;
12958;SDS011;6544;51.666;6.634;2023-02-05T05:02:15;47.42;;;23.92;;
12958;SDS011;6544;51.666;6.634;2023-02-05T05:04:42;50.45;;;23.17;;
12958;SDS011;6544;51.666;6.634;2023-02-05T05:07:09;52.42;;;25.40;;
12958;SDS011;6544;51.666;6.634;2023-02-05T05:09:36;45.95;;;25.90;;
12958;SDS011;6544;51.666;6.634;2023-02-05T05:12:04;50.72;;;25.95;;
12958;SDS011;6544;51.666;6.634;2023-02-05T05:14:31;50.60;;;25.75;;
12958;SDS011;6544;51.666;6.634;2023-02-05T05:16:58;47.83;;;25.70;;
12958;SDS011;6544;51.666;6.634;2023-02-05T05:19:25;57.97;;;28.15;;
12958;SDS011;6544;51.666;6.634;2023-02-05T05:21:52;57.05;;;27.85;;
12958;SDS011;6544;51.666;6.634;2023-02-05T05:24:19;57.45;;;28.35;;
12958;SDS011;6544;51.666;6.634;2023-02-05T05:26:46;53.33;;;27.35;;
12958;SDS011;6544;51.666;6.634;2023-02-05T05:29:14;52.03;;;28.33;;
12958;SDS011;6544;51.666;6.634;2023-02-05T05:31:41;54.47;;;29.98;;
12958;SDS011;6544;51.666;6.634;2023-02-05T05:34:08;52.78;;;29.58;;
12958;SDS011;6544;51.666;6.634;2023-02-05T05:36:35;63.10;;;31.35;;
12958;SDS011;6544;51.666;6.634;2023-02-05T05:39:04;55.55;;;29.40;;
12958;SDS011;6544;51.666;6.634;2023-02-05T05:41:44;54.60;;;29.48;;
12958;SDS011;6544;51.666;6.634;2023-02-05T05:44:30;53.90;;;29.75;;
12958;SDS011;6544;51.666;6.634;2023-02-05T05:46:56;58.55;;;30.40;;
12958;SDS011;6544;51.666;6.634;2023-02-05T05:49:23;56.53;;;30.60;;
12958;SDS011;6544;51.666;6.634;2023-02-05T05:51:50;59.95;;;31.08;;
12958;SDS011;6544;51.666;6.634;2023-02-05T05:54:17;52.70;;;31.08;;
12958;SDS011;6544;51.666;6.634;2023-02-05T05:56:44;57.75;;;30.27;;
12958;SDS011;6544;51.666;6.634;2023-02-05T05:59:11;57.08;;;30.88;;
12958;SDS011;6544;51.666;6.634;2023-02-05T06:01:40;56.45;;;31.08;;
12958;SDS011;6544;51.666;6.634;2023-02-05T06:04:07;58.55;;;31.10;;
12958;SDS011;6544;51.666;6.634;2023-02-05T06:06:34;65.65;;;33.22;;
12958;SDS011;6544;51.666;6.634;2023-02-05T06:09:02;63.28;;;32.72;;
12958;SDS011;6544;51.666;6.634;2023-02-05T06:11:29;59.25;;;32.88;;
12958;SDS011;6544;51.666;6.634;2023-02-05T06:13:55;56.08;;;31.95;;
12958;SDS011;6544;51.666;6.634;2023-02-05T06:16:22;56.45;;;31.85;;
12958;SDS011;6544;51.666;6.634;2023-02-05T06:18:50;56.28;;;32.83;;
12958;SDS011;6544;51.666;6.634;2023-02-05T06:21:17;55.28;;;31.40;;
12958;SDS011;6544;51.666;6.634;2023-02-05T06:23:44;59.65;;;32.95;;
12958;SDS011;6544;51.666;6.634;2023-02-05T06:26:11;55.13;;;32.05;;
12958;SDS011;6544;51.666;6.634;2023-02-05T06:28:38;58.35;;;32.92;;
12958;SDS011;6544;51.666;6.634;2023-02-05T06:31:05;51.33;;;30.70;;
12958;SDS011;6544;51.666;6.634;2023-02-05T06:33:32;51.53;;;30.95;;
12958;SDS011;6544;51.666;6.634;2023-02-05T06:36:00;53.28;;;31.42;;
12958;SDS011;6544;51.666;6.634;2023-02-05T06:38:29;47.20;;;29.13;;
12958;SDS011;6544;51.666;6.634;2023-02-05T06:40:56;47.42;;;28.90;;
12958;SDS011;6544;51.666;6.634;2023-02-05T06:43:23;49.65;;;30.75;;
12958;SDS011;6544;51.666;6.634;2023-02-05T06:45:50;49.45;;;30.08;;
12958;SDS011;6544;51.666;6.634;2023-02-05T06:48:17;48.75;;;28.63;;
12958;SDS011;6544;51.666;6.634;2023-02-05T06:50:44;48.70;;;29.60;;
12958;SDS011;6544;51.666;6.634;2023-02-05T06:53:13;44.85;;;27.33;;
12958;SDS011;6544;51.666;6.634;2023-02-05T06:55:40;47.72;;;29.02;;
12958;SDS011;6544;51.666;6.634;2023-02-05T06:58:06;43.83;;;28.75;;
12958;SDS011;6544;51.666;6.634;2023-02-05T07:00:33;42.58;;;28.45;;
12958;SDS011;6544;51.666;6.634;2023-02-05T07:03:00;44.88;;;27.85;;
12958;SDS011;6544;51.666;6.634;2023-02-05T07:05:27;43.33;;;26.98;;
12958;SDS011;6544;51.666;6.634;2023-02-05T07:07:54;36.08;;;25.33;;
12958;SDS011;6544;51.666;6.634;2023-02-05T07:10:22;38.50;;;26.45;;
12958;SDS011;6544;51.666;6.634;2023-02-05T07:12:49;38.78;;;24.75;;
12958;SDS011;6544;51.666;6.634;2023-02-05T07:15:16;38.00;;;25.83;;
12958;SDS011;6544;51.666;6.634;2023-02-05T07:17:43;39.13;;;25.83;;
12958;SDS011;6544;51.666;6.634;2023-02-05T07:20:10;36.63;;;23.07;;
12958;SDS011;6544;51.666;6.634;2023-02-05T07:22:37;36.75;;;24.67;;
12958;SDS011;6544;51.666;6.634;2023-02-05T07:25:04;34.78;;;23.17;;
12958;SDS011;6544;51.666;6.634;2023-02-05T07:27:33;31.92;;;20.75;;
12958;SDS011;6544;51.666;6.634;2023-02-05T07:29:59;30.00;;;20.58;;
12958;SDS011;6544;51.666;6.634;2023-02-05T07:32:26;32.50;;;20.83;;
12958;SDS011;6544;51.666;6.634;2023-02-05T07:34:53;32.07;;;20.60;;
12958;SDS011;6544;51.666;6.634;2023-02-05T07:37:20;30.77;;;19.60;;
12958;SDS011;6544;51.666;6.634;2023-02-05T07:39:47;26.67;;;18.30;;
12958;SDS011;6544;51.666;6.634;2023-02-05T07:42:14;27.03;;;17.27;;
12958;SDS011;6544;51.666;6.634;2023-02-05T07:44:42;21.83;;;16.13;;
12958;SDS011;6544;51.666;6.634;2023-02-05T07:47:09;18.20;;;13.10;;
12958;SDS011;6544;51.666;6.634;2023-02-05T07:49:36;16.97;;;11.37;;
12958;SDS011;6544;51.666;6.634;2023-02-05T07:52:03;14.87;;;9.73;;
12958;SDS011;6544;51.666;6.634;2023-02-05T07:54:30;11.47;;;7.87;;
12958;SDS011;6544;51.666;6.634;2023-02-05T07:56:56;10.77;;;6.03;;
12958;SDS011;6544;51.666;6.634;2023-02-05T07:59:24;6.77;;;4.13;;
12958;SDS011;6544;51.666;6.634;2023-02-05T08:01:53;9.70;;;3.40;;
12958;SDS011;6544;51.666;6.634;2023-02-05T08:04:19;5.33;;;2.80;;
12958;SDS011;6544;51.666;6.634;2023-02-05T08:06:46;4.97;;;2.50;;
12958;SDS011;6544;51.666;6.634;2023-02-05T08:09:13;7.80;;;2.40;;
12958;SDS011;6544;51.666;6.634;2023-02-05T08:11:40;6.53;;;2.20;;
12958;SDS011;6544;51.666;6.634;2023-02-05T08:14:07;5.60;;;2.30;;
12958;SDS011;6544;51.666;6.634;2023-02-05T08:16:34;5.97;;;2.10;;
12958;SDS011;6544;51.666;6.634;2023-02-05T08:19:02;8.37;;;1.80;;
12958;SDS011;6544;51.666;6.634;2023-02-05T08:21:29;9.57;;;1.90;;
12958;SDS011;6544;51.666;6.634;2023-02-05T08:23:56;6.07;;;1.60;;
12958;SDS011;6544;51.666;6.634;2023-02-05T08:26:25;7.90;;;1.70;;
12958;SDS011;6544;51.666;6.634;2023-02-05T08:28:51;8.57;;;1.50;;
12958;SDS011;6544;51.666;6.634;2023-02-05T08:31:19;6.00;;;1.90;;
12958;SDS011;6544;51.666;6.634;2023-02-05T08:33:46;5.57;;;1.83;;
12958;SDS011;6544;51.666;6.634;2023-02-05T08:36:16;8.17;;;2.10;;
12958;SDS011;6544;51.666;6.634;2023-02-05T08:38:43;4.90;;;1.70;;
12958;SDS011;6544;51.666;6.634;2023-02-05T08:41:09;5.10;;;1.57;;
12958;SDS011;6544;51.666;6.634;2023-02-05T08:43:41;7.63;;;1.63;;
12958;SDS011;6544;51.666;6.634;2023-02-05T08:46:09;6.03;;;1.60;;
12958;SDS011;6544;51.666;6.634;2023-02-05T08:48:37;6.93;;;1.80;;
12958;SDS011;6544;51.666;6.634;2023-02-05T08:51:05;6.73;;;1.97;;
12958;SDS011;6544;51.666;6.634;2023-02-05T08:53:35;7.03;;;2.17;;
12958;SDS011;6544;51.666;6.634;2023-02-05T08:56:02;4.07;;;1.67;;
12958;SDS011;6544;51.666;6.634;2023-02-05T08:58:30;10.17;;;2.40;;
12958;SDS011;6544;51.666;6.634;2023-02-05T09:01:00;10.07;;;2.67;;
12958;SDS011;6544;51.666;6.634;2023-02-05T09:03:28;11.80;;;2.33;;
12958;SDS011;6544;51.666;6.634;2023-02-05T09:05:56;11.20;;;2.83;;
12958;SDS011;6544;51.666;6.634;2023-02-05T09:08:23;6.30;;;1.90;;
12958;SDS011;6544;51.666;6.634;2023-02-05T09:10:52;13.27;;;2.77;;
12958;SDS011;6544;51.666;6.634;2023-02-05T09:13:19;9.67;;;2.80;;
12958;SDS011;6544;51.666;6.634;2023-02-05T09:15:46;8.93;;;2.67;;
12958;SDS011;6544;51.666;6.634;2023-02-05T09:18:13;11.27;;;2.63;;
12958;SDS011;6544;51.666;6.634;2023-02-05T09:20:40;15.40;;;2.87;;
12958;SDS011;6544;51.666;6.634;2023-02-05T09:23:08;17.33;;;2.90;;
12958;SDS011;6544;51.666;6.634;2023-02-05T09:25:36;8.57;;;2.60;;
12958;SDS011;6544;51.666;6.634;2023-02-05T09:28:04;13.40;;;3.07;;
12958;SDS011;6544;51.666;6.634;2023-02-05T09:30:33;16.50;;;3.27;;
12958;SDS011;6544;51.666;6.634;2023-02-05T09:33:00;11.50;;;2.63;;
12958;SDS011;6544;51.666;6.634;2023-02-05T09:35:27;14.33;;;2.90;;
12958;SDS011;6544;51.666;6.634;2023-02-05T09:37:54;9.93;;;2.70;;
12958;SDS011;6544;51.666;6.634;2023-02-05T09:40:22;16.40;;;3.17;;
12958;SDS011;6544;51.666;6.634;2023-02-05T09:42:54;20.83;;;3.00;;
12958;SDS011;6544;51.666;6.634;2023-02-05T09:45:39;8.43;;;2.50;;
12958;SDS011;6544;51.666;6.634;2023-02-05T09:48:22;10.47;;;2.43;;
12958;SDS011;6544;51.666;6.634;2023-02-05T09:51:02;12.40;;;2.43;;
12958;SDS011;6544;51.666;6.634;2023-02-05T09:53:32;8.90;;;2.27;;
12958;SDS011;6544;51.666;6.634;2023-02-05T09:56:01;9.40;;;2.37;;
12958;SDS011;6544;51.666;6.634;2023-02-05T09:58:32;11.77;;;2.37;;
12958;SDS011;6544;51.666;6.634;2023-02-05T10:01:03;11.57;;;2.63;;
12958;SDS011;6544;51.666;6.634;2023-02-05T10:03:41;11.97;;;2.60;;
12958;SDS011;6544;51.666;6.634;2023-02-05T10:06:11;6.17;;;2.20;;
12958;SDS011;6544;51.666;6.634;2023-02-05T10:08:52;12.70;;;2.73;;
12958;SDS011;6544;51.666;6.634;2023-02-05T10:11:29;12.93;;;2.67;;
12958;SDS011;6544;51.666;6.634;2023-02-05T10:14:04;14.57;;;3.10;;
12958;SDS011;6544;51.666;6.634;2023-02-05T10:16:52;14.57;;;3.30;;
12958;SDS011;6544;51.666;6.634;2023-02-05T10:19:46;12.90;;;2.50;;
12958;SDS011;6544;51.666;6.634;2023-02-05T10:22:24;15.03;;;3.03;;
12958;SDS011;6544;51.666;6.634;2023-02-05T10:25:01;11.13;;;2.97;;
12958;SDS011;6544;51.666;6.634;2023-02-05T10:27:45;12.27;;;2.87;;
12958;SDS011;6544;51.666;6.634;2023-02-05T10:30:23;13.17;;;3.20;;
12958;SDS011;6544;51.666;6.634;2023-02-05T10:32:57;14.63;;;3.20;;
12958;SDS011;6544;51.666;6.634;2023-02-05T10:35:33;14.00;;;3.00;;
12958;SDS011;6544;51.666;6.634;2023-02-05T10:38:19;14.77;;;2.97;;
12958;SDS011;6544;51.666;6.634;2023-02-05T10:40:49;16.30;;;3.73;;
12958;SDS011;6544;51.666;6.634;2023-02-05T10:43:20;15.70;;;2.87;;
12958;SDS011;6544;51.666;6.634;2023-02-05T10:45:51;12.67;;;3.40;;
12958;SDS011;6544;51.666;6.634;2023-02-05T10:51:07;14.20;;;3.17;;
12958;SDS011;6544;51.666;6.634;2023-02-05T10:53:38;19.63;;;3.57;;
12958;SDS011;6544;51.666;6.634;2023-02-05T10:56:05;15.63;;;3.20;;
12958;SDS011;6544;51.666;6.634;2023-02-05T10:58:38;21.13;;;3.40;;
12958;SDS011;6544;51.666;6.634;2023-02-05T11:01:11;17.90;;;3.30;;
12958;SDS011;6544;51.666;6.634;2023-02-05T11:03:45;24.00;;;3.80;;
12958;SDS011;6544;51.666;6.634;2023-02-05T11:06:19;17.83;;;3.50;;
12958;SDS011;6544;51.666;6.634;2023-02-05T11:08:48;16.43;;;3.23;;
12958;SDS011;6544;51.666;6.634;2023-02-05T11:11:19;21.53;;;3.97;;
12958;SDS011;6544;51.666;6.634;2023-02-05T11:13:54;18.17;;;3.50;;
12958;SDS011;6544;51.666;6.634;2023-02-05T11:16:23;16.80;;;3.23;;
12958;SDS011;6544;51.666;6.634;2023-02-05T11:19:07;15.77;;;3.73;;
12958;SDS011;6544;51.666;6.634;2023-02-05T11:21:51;10.83;;;2.67;;
12958;SDS011;6544;51.666;6.634;2023-02-05T11:24:27;14.73;;;3.40;;
12958;SDS011;6544;51.666;6.634;2023-02-05T11:27:10;14.13;;;3.00;;
12958;SDS011;6544;51.666;6.634;2023-02-05T11:29:56;12.63;;;3.13;;
12958;SDS011;6544;51.666;6.634;2023-02-05T11:32:32;9.17;;;3.00;;
12958;SDS011;6544;51.666;6.634;2023-02-05T11:35:15;11.90;;;2.60;;
12958;SDS011;6544;51.666;6.634;2023-02-05T11:37:45;11.53;;;2.57;;
12958;SDS011;6544;51.666;6.634;2023-02-05T11:40:17;12.97;;;2.53;;
12958;SDS011;6544;51.666;6.634;2023-02-05T11:42:46;14.53;;;2.77;;
12958;SDS011;6544;51.666;6.634;2023-02-05T11:45:19;13.47;;;2.80;;
12958;SDS011;6544;51.666;6.634;2023-02-05T11:47:47;13.93;;;2.93;;
12958;SDS011;6544;51.666;6.634;2023-02-05T11:50:19;10.17;;;2.70;;
12958;SDS011;6544;51.666;6.634;2023-02-05T11:52:49;10.40;;;2.30;;
12958;SDS011;6544;51.666;6.634;2023-02-05T11:55:23;11.20;;;2.47;;
12958;SDS011;6544;51.666;6.634;2023-02-05T11:57:57;9.93;;;2.40;;
12958;SDS011;6544;51.666;6.634;2023-02-05T12:00:25;9.43;;;2.33;;
12958;SDS011;6544;51.666;6.634;2023-02-05T12:03:01;9.90;;;2.30;;
12958;SDS011;6544;51.666;6.634;2023-02-05T12:05:31;9.93;;;2.30;;
12958;SDS011;6544;51.666;6.634;2023-02-05T12:08:02;9.70;;;2.87;;
12958;SDS011;6544;51.666;6.634;2023-02-05T12:10:36;11.63;;;2.23;;
12958;SDS011;6544;51.666;6.634;2023-02-05T12:13:08;10.57;;;2.53;;
12958;SDS011;6544;51.666;6.634;2023-02-05T12:15:48;9.57;;;2.30;;
12958;SDS011;6544;51.666;6.634;2023-02-05T12:18:24;12.07;;;2.63;;
12958;SDS011;6544;51.666;6.634;2023-02-05T12:21:09;11.98;;;2.80;;
12958;SDS011;6544;51.666;6.634;2023-02-05T12:23:50;5.63;;;2.15;;
12958;SDS011;6544;51.666;6.634;2023-02-05T12:26:29;10.45;;;2.45;;
12958;SDS011;6544;51.666;6.634;2023-02-05T12:29:02;9.90;;;2.50;;
12958;SDS011;6544;51.666;6.634;2023-02-05T12:31:43;9.45;;;2.45;;
12958;SDS011;6544;51.666;6.634;2023-02-05T12:34:25;7.72;;;2.05;;
12958;SDS011;6544;51.666;6.634;2023-02-05T12:37:02;8.20;;;2.43;;
12958;SDS011;6544;51.666;6.634;2023-02-05T12:39:44;6.95;;;2.40;;
12958;SDS011;6544;51.666;6.634;2023-02-05T12:42:14;14.18;;;3.05;;
12958;SDS011;6544;51.666;6.634;2023-02-05T12:44:55;11.82;;;3.15;;
12958;SDS011;6544;51.666;6.634;2023-02-05T12:47:43;11.27;;;3.20;;
12958;SDS011;6544;51.666;6.634;2023-02-05T12:50:29;7.70;;;2.40;;
12958;SDS011;6544;51.666;6.634;2023-02-05T12:53:13;11.77;;;3.13;;
12958;SDS011;6544;51.666;6.634;2023-02-05T12:56:00;14.65;;;3.45;;
12958;SDS011;6544;51.666;6.634;2023-02-05T12:58:49;13.95;;;3.30;;
12958;SDS011;6544;51.666;6.634;2023-02-05T13:01:30;14.02;;;3.65;;
12958;SDS011;6544;51.666;6.634;2023-02-05T13:04:03;13.18;;;3.08;;
12958;SDS011;6544;51.666;6.634;2023-02-05T13:06:35;13.30;;;3.03;;
12958;SDS011;6544;51.666;6.634;2023-02-05T13:09:11;16.67;;;3.22;;
12958;SDS011;6544;51.666;6.634;2023-02-05T13:11:45;11.20;;;3.05;;
12958;SDS011;6544;51.666;6.634;2023-02-05T13:14:16;14.93;;;3.20;;
12958;SDS011;6544;51.666;6.634;2023-02-05T13:16:47;12.43;;;3.78;;
12958;SDS011;6544;51.666;6.634;2023-02-05T13:19:21;14.10;;;3.28;;
12958;SDS011;6544;51.666;6.634;2023-02-05T13:21:54;16.25;;;3.97;;
12958;SDS011;6544;51.666;6.634;2023-02-05T13:24:43;18.33;;;4.50;;
12958;SDS011;6544;51.666;6.634;2023-02-05T13:27:32;13.27;;;3.33;;
12958;SDS011;6544;51.666;6.634;2023-02-05T13:30:23;15.18;;;3.80;;
12958;SDS011;6544;51.666;6.634;2023-02-05T13:32:54;10.65;;;2.80;;
12958;SDS011;6544;51.666;6.634;2023-02-05T13:35:25;13.38;;;3.25;;
12958;SDS011;6544;51.666;6.634;2023-02-05T13:41:05;13.00;;;2.80;;
12958;SDS011;6544;51.666;6.634;2023-02-05T13:46:50;13.68;;;3.00;;
12958;SDS011;6544;51.666;6.634;2023-02-05T13:49:56;14.75;;;2.92;;
12958;SDS011;6544;51.666;6.634;2023-02-05T13:52:59;18.17;;;3.75;;
12958;SDS011;6544;51.666;6.634;2023-02-05T13:58:37;16.83;;;4.47;;
12958;SDS011;6544;51.666;6.634;2023-02-05T14:01:13;15.68;;;3.40;;
12958;SDS011;6544;51.666;6.634;2023-02-05T14:03:45;17.17;;;4.03;;
12958;SDS011;6544;51.666;6.634;2023-02-05T14:06:21;16.20;;;3.57;;
12958;SDS011;6544;51.666;6.634;2023-02-05T14:08:55;17.10;;;3.93;;
12958;SDS011;6544;51.666;6.634;2023-02-05T14:11:27;19.58;;;3.95;;
12958;SDS011;6544;51.666;6.634;2023-02-05T14:14:22;18.17;;;4.10;;
12958;SDS011;6544;51.666;6.634;2023-02-05T14:16:54;16.08;;;3.78;;
12958;SDS011;6544;51.666;6.634;2023-02-05T14:19:23;18.10;;;3.67;;
12958;SDS011;6544;51.666;6.634;2023-02-05T14:22:02;13.48;;;3.65;;
12958;SDS011;6544;51.666;6.634;2023-02-05T14:24:42;15.55;;;4.03;;
12958;SDS011;6544;51.666;6.634;2023-02-05T14:33:29;17.80;;;3.58;;
12958;SDS011;6544;51.666;6.634;2023-02-05T14:38:54;15.85;;;3.47;;
12958;SDS011;6544;51.666;6.634;2023-02-05T14:41:25;26.33;;;5.20;;
12958;SDS011;6544;51.666;6.634;2023-02-05T14:43:57;28.83;;;4.25;;
12958;SDS011;6544;51.666;6.634;2023-02-05T14:46:31;18.48;;;4.25;;
12958;SDS011;6544;51.666;6.634;2023-02-05T14:49:01;21.25;;;4.00;;
12958;SDS011;6544;51.666;6.634;2023-02-05T14:51:35;16.50;;;3.80;;
12958;SDS011;6544;51.666;6.634;2023-02-05T14:54:04;20.58;;;4.05;;
12958;SDS011;6544;51.666;6.634;2023-02-05T14:56:40;26.60;;;4.80;;
12958;SDS011;6544;51.666;6.634;2023-02-05T14:59:16;18.88;;;4.38;;
12958;SDS011;6544;51.666;6.634;2023-02-05T15:01:48;19.55;;;4.45;;
12958;SDS011;6544;51.666;6.634;2023-02-05T15:07:10;17.10;;;4.40;;
12958;SDS011;6544;51.666;6.634;2023-02-05T15:09:41;18.88;;;5.35;;
12958;SDS011;6544;51.666;6.634;2023-02-05T15:15:23;28.73;;;6.45;;
12958;SDS011;6544;51.666;6.634;2023-02-05T15:17:56;21.75;;;5.47;;
12958;SDS011;6544;51.666;6.634;2023-02-05T15:20:30;22.92;;;5.20;;
12958;SDS011;6544;51.666;6.634;2023-02-05T15:23:01;18.83;;;5.05;;
12958;SDS011;6544;51.666;6.634;2023-02-05T15:25:34;22.48;;;4.95;;
12958;SDS011;6544;51.666;6.634;2023-02-05T15:28:05;24.17;;;4.80;;
12958;SDS011;6544;51.666;6.634;2023-02-05T15:30:42;20.48;;;5.03;;
12958;SDS011;6544;51.666;6.634;2023-02-05T15:33:26;21.90;;;4.72;;
12958;SDS011;6544;51.666;6.634;2023-02-05T15:35:56;23.75;;;4.95;;
12958;SDS011;6544;51.666;6.634;2023-02-05T15:38:27;17.50;;;5.03;;